.
WxDataArchive / Data Records for 2009-01-24
2009-01-23 January 2009 2009-01-25

Data Records for Saturday, 24 January 2009

Time	Temp	Chill	HIndex	Humid	Dewpt	 Wind 	HiWind	WindDir	Rain 	Barom 
-----	----	-----	------	-----	-----	------	------	-------	-----	----- 
00:00	27.5	27.5	27.5	65	17.3	3	6	315	0.00	30.193 
00:05	27.3	22.6	27.3	66	17.5	4	10	292	0.00	30.195 
00:10	27.2	27.2	27.2	67	17.7	3	7	315	0.00	30.197 
00:15	27.2	27.2	27.2	67	17.7	2	7	315	0.00	30.197 
00:20	27.0	27.0	27.0	67	17.5	2	6	338	0.00	30.202 
00:25	26.9	26.9	26.9	67	17.4	3	9	292	0.00	30.199 
00:30	26.7	26.7	26.7	67	17.2	3	10	292	0.00	30.203 
00:35	26.4	26.4	26.4	68	17.3	2	5	338	0.00	30.203 
00:40	26.1	26.1	26.1	68	17.0	3	11	292	0.00	30.208 
00:45	26.0	26.0	26.0	69	17.2	3	9	292	0.00	30.213 
00:50	25.8	25.8	25.8	69	17.1	1	5	292	0.00	30.214 
00:55	25.7	25.7	25.7	69	17.0	2	5	292	0.00	30.214 
01:00	25.6	25.6	25.6	69	16.9	1	3	338	0.00	30.218 
01:05	25.6	25.6	25.6	69	16.9	1	5	315	0.00	30.220 
01:10	25.4	25.4	25.4	69	16.7	2	7	315	0.00	30.221 
01:15	25.3	25.3	25.3	69	16.6	2	5	292	0.00	30.226 
01:20	25.1	25.1	25.1	69	16.4	2	7	292	0.00	30.229 
01:25	25.1	25.1	25.1	70	16.7	2	3	315	0.00	30.233 
01:30	25.1	25.1	25.1	70	16.7	3	7	338	0.00	30.233 
01:35	25.0	25.0	25.0	71	16.9	3	9	315	0.00	30.239 
01:40	25.0	25.0	25.0	72	17.3	2	4	292	0.00	30.239 
01:45	24.8	24.8	24.8	73	17.4	1	6	338	0.00	30.239 
01:50	24.8	24.8	24.8	73	17.4	1	3	292	0.00	30.243 
01:55	24.7	24.7	24.7	73	17.3	1	3	0	0.00	30.245 
02:00	24.7	24.7	24.7	74	17.6	1	3	270	0.00	30.247 
02:05	24.7	24.7	24.7	74	17.6	1	4	0	0.00	30.251 
02:10	24.5	24.5	24.5	74	17.4	2	6	270	0.00	30.254 
02:15	24.4	24.4	24.4	74	17.3	2	5	292	0.00	30.260 
02:20	24.2	24.2	24.2	74	17.1	1	5	270	0.00	30.263 
02:25	24.1	24.1	24.1	74	17.0	2	6	315	0.00	30.263 
02:30	24.1	24.1	24.1	74	17.0	2	5	0	0.00	30.265 
02:35	23.9	23.9	23.9	74	16.8	1	4	338	0.00	30.265 
02:40	23.8	23.8	23.8	74	16.7	1	4	315	0.00	30.267 
02:45	23.6	23.6	23.6	74	16.6	1	4	0	0.00	30.269 
02:50	23.6	23.6	23.6	74	16.6	2	5	338	0.00	30.270 
02:55	23.6	23.6	23.6	75	16.9	1	3	315	0.00	30.273 
03:00	23.5	23.5	23.5	75	16.8	1	3	338	0.00	30.280 
03:05	23.5	23.5	23.5	75	16.8	1	5	270	0.00	30.285 
03:10	23.5	23.5	23.5	75	16.8	1	4	338	0.00	30.285 
03:15	23.3	23.3	23.3	75	16.6	1	3	270	0.00	30.288 
03:20	23.3	23.3	23.3	77	17.2	1	3	338	0.00	30.288 
03:25	23.2	23.2	23.2	77	17.1	1	3	270	0.00	30.288 
03:30	23.2	23.2	23.2	78	17.4	1	3	248	0.00	30.288 
03:35	23.0	23.0	23.0	79	17.5	1	3	338	0.00	30.289 
03:40	22.9	22.9	22.9	79	17.4	1	3	338	0.00	30.291 
03:45	22.5	22.5	22.5	78	16.7	1	2	270	0.00	30.291 
03:50	22.4	22.4	22.4	77	16.3	0	3	338	0.00	30.293 
03:55	22.1	22.1	22.1	77	16.0	1	3	315	0.00	30.298 
04:00	21.8	21.8	21.8	77	15.7	1	5	292	0.00	30.302 
04:05	21.6	21.6	21.6	77	15.5	1	3	0	0.00	30.304 
04:10	21.4	21.4	21.4	78	15.6	1	4	292	0.00	30.307 
04:15	21.3	21.3	21.3	79	15.8	1	3	315	0.00	30.309 
04:20	21.1	21.1	21.1	79	15.6	1	3	292	0.00	30.310 
04:25	21.1	21.1	21.1	80	15.9	0	1	22	0.00	30.311 
04:30	21.1	21.1	21.1	80	15.9	0	2	22	0.00	30.312 
04:35	21.0	21.0	21.0	79	15.5	0	3	338	0.00	30.313 
04:40	21.0	21.0	21.0	79	15.5	1	4	315	0.00	30.315 
04:45	20.8	20.8	20.8	78	15.0	0	3	270	0.00	30.315 
04:50	20.8	20.8	20.8	77	14.7	0	2	270	0.00	30.316 
04:55	20.8	20.8	20.8	77	14.7	1	2	292	0.00	30.319 
05:00	20.6	20.6	20.6	77	14.6	0	4	0	0.00	30.319 
05:05	20.6	20.6	20.6	77	14.6	0	3	292	0.00	30.317 
05:10	20.6	20.6	20.6	78	14.8	0	2	270	0.00	30.320 
05:15	20.6	20.6	20.6	78	14.8	0	3	292	0.00	30.320 
05:20	20.5	20.5	20.5	78	14.8	0	2	292	0.00	30.321 
05:25	20.5	20.5	20.5	78	14.8	0	2	292	0.00	30.321 
05:30	20.3	20.3	20.3	77	14.3	0	2	292	0.00	30.322 
05:35	20.2	20.2	20.2	76	13.9	1	2	0	0.00	30.324 
05:40	20.0	20.0	20.0	76	13.7	0	2	0	0.00	30.325 
05:45	19.9	19.9	19.9	76	13.6	0	3	0	0.00	30.327 
05:50	19.7	19.7	19.7	75	13.1	1	3	0	0.00	30.329 
05:55	19.4	19.4	19.4	74	12.5	0	2	0	0.00	30.333 
06:00	19.2	19.2	19.2	73	12.0	0	3	0	0.00	30.337 
06:05	19.2	19.2	19.2	73	12.0	0	2	0	0.00	30.339 
06:10	19.1	19.1	19.1	72	11.6	0	2	0	0.00	30.340 
06:15	18.9	18.9	18.9	70	10.8	0	2	0	0.00	30.341 
06:20	18.9	18.9	18.9	69	10.4	0	3	0	0.00	30.345 
06:25	18.8	18.8	18.8	68	10.0	1	5	270	0.00	30.347 
06:30	18.6	18.6	18.6	67	9.5	1	3	22	0.00	30.349 
06:35	18.6	18.6	18.6	66	9.2	1	5	315	0.00	30.353 
06:40	18.4	18.4	18.4	66	9.0	0	2	248	0.00	30.355 
06:45	18.4	18.4	18.4	66	9.0	1	4	248	0.00	30.359 
06:50	18.4	18.4	18.4	66	9.0	0	2	292	0.00	30.362 
06:55	18.3	18.3	18.3	67	9.2	0	3	292	0.00	30.367 
07:00	18.3	18.3	18.3	67	9.2	0	2	292	0.00	30.372 
07:05	18.1	18.1	18.1	67	9.0	0	2	292	0.00	30.373 
07:10	18.1	18.1	18.1	67	9.0	0	2	292	0.00	30.374 
07:15	18.1	18.1	18.1	67	9.0	0	1	292	0.00	30.376 
07:20	18.0	18.0	18.0	67	8.9	0	2	292	0.00	30.379 
07:25	17.8	17.8	17.8	67	8.7	0	1	0	0.00	30.382 
07:30	17.8	17.8	17.8	67	8.7	0	1	0	0.00	30.387 
07:35	17.8	17.8	17.8	67	8.7	0	1	0	0.00	30.388 
07:40	17.7	17.7	17.7	67	8.6	0	2	0	0.00	30.392 
07:45	17.7	17.7	17.7	67	8.6	0	2	0	0.00	30.396 
07:50	17.5	17.5	17.5	68	8.8	0	2	0	0.00	30.399 
07:55	17.5	17.5	17.5	68	8.8	0	2	338	0.00	30.403 
08:00	17.5	17.5	17.5	68	8.8	0	2	338	0.00	30.405 
08:05	17.3	17.3	17.3	68	8.6	0	2	338	0.00	30.409 
08:10	17.3	17.3	17.3	69	8.9	0	1	338	0.00	30.414 
08:15	17.3	17.3	17.3	69	8.9	0	3	338	0.00	30.419 
08:20	17.3	17.3	17.3	69	8.9	0	1	292	0.00	30.421 
08:25	17.3	17.3	17.3	69	8.9	0	2	292	0.00	30.422 
08:30	17.3	17.3	17.3	69	8.9	0	1	292	0.00	30.425 
08:35	17.3	17.3	17.3	69	8.9	0	3	270	0.00	30.424 
08:40	17.3	17.3	17.3	69	8.9	0	1	270	0.00	30.425 
08:45	17.3	17.3	17.3	69	8.9	0	1	270	0.00	30.428 
08:50	17.3	17.3	17.3	69	8.9	0	0	---	0.00	30.431 
08:55	17.2	17.2	17.2	69	8.8	0	2	270	0.00	30.433 
09:00	17.2	17.2	17.2	68	8.5	0	2	270	0.00	30.434 
09:05	17.0	17.0	17.0	68	8.3	0	1	270	0.00	30.437 
09:10	17.0	17.0	17.0	68	8.3	0	2	270	0.00	30.437 
09:15	17.2	17.2	17.2	68	8.5	0	2	270	0.00	30.438 
09:20	17.2	17.2	17.2	68	8.5	0	3	22	0.00	30.440 
09:25	17.5	17.5	17.5	67	8.4	0	2	22	0.00	30.439 
09:30	17.7	17.7	17.7	67	8.6	0	3	315	0.00	30.437 
09:35	17.8	17.8	17.8	66	8.4	1	4	270	0.00	30.437 
09:40	18.1	18.1	18.1	66	8.7	0	2	338	0.00	30.440 
09:45	18.3	18.3	18.3	65	8.5	1	3	292	0.00	30.440 
09:50	18.6	18.6	18.6	65	8.8	0	2	292	0.00	30.442 
09:55	18.8	18.8	18.8	64	8.7	0	2	292	0.00	30.444 
10:00	18.8	18.8	18.8	63	8.3	1	3	22	0.00	30.440 
10:05	18.8	18.8	18.8	63	8.3	0	3	22	0.00	30.439 
10:10	19.1	19.1	19.1	62	8.3	0	3	292	0.00	30.441 
10:15	19.1	19.1	19.1	61	7.9	1	3	292	0.00	30.446 
10:20	18.9	18.9	18.9	61	7.7	1	2	292	0.00	30.448 
10:25	18.9	18.9	18.9	61	7.7	0	3	292	0.00	30.448 
10:30	18.9	18.9	18.9	61	7.7	0	3	292	0.00	30.446 
10:35	18.9	18.9	18.9	62	8.1	0	3	338	0.00	30.445 
10:40	18.8	18.8	18.8	61	7.6	1	4	270	0.00	30.444 
10:45	19.1	19.1	19.1	61	7.9	0	2	270	0.00	30.445 
10:50	19.2	19.2	19.2	60	7.6	1	2	68	0.00	30.444 
10:55	19.5	19.5	19.5	61	8.3	0	3	45	0.00	30.446 
11:00	19.9	19.9	19.9	59	7.9	0	1	45	0.00	30.443 
11:05	20.0	20.0	20.0	60	8.4	0	2	45	0.00	30.444 
11:10	20.0	20.0	20.0	60	8.4	1	3	22	0.00	30.444 
11:15	20.0	20.0	20.0	59	8.0	0	2	315	0.00	30.442 
11:20	20.2	20.2	20.2	59	8.2	0	2	315	0.00	30.441 
11:25	19.9	19.9	19.9	59	7.9	0	2	315	0.00	30.440 
11:30	19.5	19.5	19.5	60	7.9	0	2	0	0.00	30.436 
11:35	19.4	19.4	19.4	61	8.2	0	1	0	0.00	30.438 
11:40	19.7	19.7	19.7	60	8.1	0	2	338	0.00	30.435 
11:45	20.5	20.5	20.5	61	9.2	1	3	248	0.00	30.434 
11:50	20.8	20.8	20.8	59	8.8	0	2	248	0.00	30.434 
11:55	20.6	20.6	20.6	56	7.4	0	2	338	0.00	30.433 
12:00	20.8	20.8	20.8	56	7.6	1	3	270	0.00	30.430 
12:05	20.6	20.6	20.6	56	7.4	0	1	315	0.00	30.431 
12:10	20.6	20.6	20.6	57	7.8	1	3	315	0.00	30.433 
12:15	20.3	20.3	20.3	54	6.3	1	3	248	0.00	30.434 
12:20	20.3	20.3	20.3	54	6.3	1	3	248	0.00	30.435 
12:25	20.0	20.0	20.0	56	6.9	1	3	270	0.00	30.435 
12:30	19.9	19.9	19.9	57	7.2	1	4	270	0.00	30.434 
12:35	20.2	20.2	20.2	57	7.4	0	3	292	0.00	30.433 
12:40	20.5	20.5	20.5	57	7.7	0	3	292	0.00	30.433 
12:45	20.3	20.3	20.3	57	7.5	0	2	0	0.00	30.430 
12:50	20.5	20.5	20.5	57	7.7	0	1	315	0.00	30.428 
12:55	20.2	20.2	20.2	56	7.0	1	4	270	0.00	30.425 
13:00	19.9	19.9	19.9	54	6.0	0	3	292	0.00	30.424 
13:05	20.0	20.0	20.0	54	6.1	1	2	292	0.00	30.424 
13:10	20.2	20.2	20.2	55	6.7	0	2	338	0.00	30.423 
13:15	20.3	20.3	20.3	56	7.1	1	3	270	0.00	30.423 
13:20	20.2	20.2	20.2	56	7.0	1	4	338	0.00	30.422 
13:25	20.2	20.2	20.2	56	7.0	1	3	0	0.00	30.422 
13:30	20.3	20.3	20.3	56	7.1	1	3	315	0.00	30.423 
13:35	20.5	20.5	20.5	57	7.7	0	2	315	0.00	30.423 
13:40	20.6	20.6	20.6	57	7.8	1	3	270	0.00	30.421 
13:45	20.6	20.6	20.6	58	8.2	1	3	292	0.00	30.422 
13:50	20.6	20.6	20.6	59	8.6	1	3	292	0.00	30.422 
13:55	20.5	20.5	20.5	56	7.3	1	4	338	0.00	30.421 
14:00	20.3	20.3	20.3	57	7.5	1	3	315	0.00	30.422 
14:05	20.3	20.3	20.3	55	6.7	1	6	292	0.00	30.422 
14:10	20.3	20.3	20.3	56	7.1	1	3	315	0.00	30.421 
14:15	20.3	20.3	20.3	56	7.1	1	4	292	0.00	30.421 
14:20	20.3	20.3	20.3	56	7.1	1	4	338	0.00	30.422 
14:25	20.3	20.3	20.3	54	6.3	1	4	315	0.00	30.422 
14:30	20.5	20.5	20.5	53	6.1	1	4	338	0.00	30.422 
14:35	20.5	20.5	20.5	53	6.1	1	3	0	0.00	30.422 
14:40	20.3	20.3	20.3	53	5.9	2	5	270	0.00	30.425 
14:45	20.2	20.2	20.2	52	5.4	1	5	315	0.00	30.425 
14:50	20.0	20.0	20.0	52	5.2	1	4	315	0.00	30.423 
14:55	20.2	20.2	20.2	53	5.8	1	3	292	0.00	30.423 
15:00	20.2	20.2	20.2	52	5.4	1	4	315	0.00	30.424 
15:05	20.2	20.2	20.2	53	5.8	1	6	270	0.00	30.425 
15:10	20.0	20.0	20.0	53	5.7	1	4	270	0.00	30.426 
15:15	20.0	20.0	20.0	54	6.1	1	3	315	0.00	30.430 
15:20	19.9	19.9	19.9	54	6.0	1	3	315	0.00	30.430 
15:25	19.9	19.9	19.9	54	6.0	1	4	22	0.00	30.435 
15:30	19.7	19.7	19.7	55	6.2	1	3	270	0.00	30.437 
15:35	19.9	19.9	19.9	54	6.0	1	2	248	0.00	30.436 
15:40	19.9	19.9	19.9	54	6.0	1	2	270	0.00	30.436 
15:45	19.9	19.9	19.9	54	6.0	1	4	270	0.00	30.439 
15:50	19.9	19.9	19.9	54	6.0	1	3	248	0.00	30.438 
15:55	19.9	19.9	19.9	54	6.0	1	3	248	0.00	30.437 
16:00	19.7	19.7	19.7	55	6.2	1	3	270	0.00	30.434 
16:05	19.7	19.7	19.7	56	6.6	1	3	338	0.00	30.439 
16:10	19.7	19.7	19.7	56	6.6	0	2	270	0.00	30.439 
16:15	19.7	19.7	19.7	56	6.6	1	3	338	0.00	30.440 
16:20	19.7	19.7	19.7	57	7.0	1	3	270	0.00	30.441 
16:25	19.4	19.4	19.4	59	7.4	1	5	292	0.00	30.440 
16:30	19.2	19.2	19.2	60	7.6	1	3	292	0.00	30.439 
16:35	19.1	19.1	19.1	61	7.9	0	3	338	0.00	30.439 
16:40	19.2	19.2	19.2	59	7.3	1	5	338	0.00	30.440 
16:45	19.2	19.2	19.2	56	6.1	1	3	270	0.00	30.440 
16:50	19.2	19.2	19.2	55	5.7	1	3	248	0.00	30.440 
16:55	19.5	19.5	19.5	55	6.0	2	5	270	0.00	30.441 
17:00	19.5	19.5	19.5	56	6.4	1	5	270	0.00	30.442 
17:05	19.4	19.4	19.4	56	6.3	1	3	338	0.00	30.444 
17:10	19.1	19.1	19.1	56	6.0	1	7	248	0.00	30.444 
17:15	18.9	18.9	18.9	55	5.4	2	3	292	0.00	30.444 
17:20	18.6	18.6	18.6	55	5.2	0	2	270	0.00	30.444 
17:25	18.4	18.4	18.4	55	5.0	1	3	248	0.00	30.445 
17:30	18.1	18.1	18.1	55	4.7	1	4	292	0.00	30.445 
17:35	18.0	18.0	18.0	55	4.6	0	3	292	0.00	30.445 
17:40	17.8	17.8	17.8	56	4.8	0	2	248	0.00	30.445 
17:45	17.7	17.7	17.7	56	4.7	0	2	248	0.00	30.446 
17:50	17.3	17.3	17.3	57	4.7	1	2	270	0.00	30.446 
17:55	17.2	17.2	17.2	59	5.4	1	3	270	0.00	30.448 
18:00	17.2	17.2	17.2	60	5.7	0	3	248	0.00	30.449 
18:05	16.9	16.9	16.9	62	6.2	0	1	248	0.00	30.447 
18:10	16.7	16.7	16.7	63	6.3	0	1	248	0.00	30.447 
18:15	16.5	16.5	16.5	63	6.1	0	2	315	0.00	30.442 
18:20	16.4	16.4	16.4	62	5.7	0	2	315	0.00	30.446 
18:25	16.2	16.2	16.2	63	5.9	0	1	315	0.00	30.443 
18:30	16.1	16.1	16.1	63	5.8	0	3	248	0.00	30.441 
18:35	16.1	16.1	16.1	63	5.8	0	2	248	0.00	30.444 
18:40	15.9	15.9	15.9	63	5.6	0	2	248	0.00	30.440 
18:45	15.7	15.7	15.7	63	5.4	0	1	248	0.00	30.436 
18:50	15.6	15.6	15.6	63	5.3	0	1	248	0.00	30.434 
18:55	15.4	15.4	15.4	63	5.1	0	2	248	0.00	30.432 
19:00	15.4	15.4	15.4	63	5.1	0	0	---	0.00	30.433 
19:05	15.1	15.1	15.1	63	4.8	0	1	248	0.00	30.433 
19:10	14.9	14.9	14.9	64	5.0	0	1	248	0.00	30.433 
19:15	14.8	14.8	14.8	64	4.9	0	2	248	0.00	30.433 
19:20	14.8	14.8	14.8	63	4.5	0	1	248	0.00	30.433 
19:25	14.6	14.6	14.6	64	4.7	0	2	248	0.00	30.433 
19:30	14.6	14.6	14.6	64	4.7	0	2	248	0.00	30.432 
19:35	14.4	14.4	14.4	65	4.8	0	2	248	0.00	30.433 
19:40	14.4	14.4	14.4	66	5.1	0	3	248	0.00	30.433 
19:45	14.3	14.3	14.3	67	5.4	0	2	270	0.00	30.434 
19:50	14.1	14.1	14.1	68	5.5	0	1	270	0.00	30.433 
19:55	14.0	14.0	14.0	69	5.7	0	1	270	0.00	30.431 
20:00	13.8	13.8	13.8	69	5.5	0	1	270	0.00	30.429 
20:05	13.6	13.6	13.6	70	5.7	0	2	270	0.00	30.431 
20:10	13.5	13.5	13.5	71	5.9	0	1	270	0.00	30.430 
20:15	13.3	13.3	13.3	71	5.7	0	1	270	0.00	30.432 
20:20	13.1	13.1	13.1	71	5.5	0	1	270	0.00	30.429 
20:25	12.9	12.9	12.9	72	5.6	0	1	270	0.00	30.429 
20:30	12.8	12.8	12.8	72	5.5	0	1	270	0.00	30.429 
20:35	12.6	12.6	12.6	72	5.3	0	1	270	0.00	30.430 
20:40	12.6	12.6	12.6	73	5.6	0	2	270	0.00	30.427 
20:45	12.4	12.4	12.4	73	5.4	0	1	270	0.00	30.430 
20:50	12.3	12.3	12.3	73	5.3	0	1	270	0.00	30.427 
20:55	12.1	12.1	12.1	73	5.1	0	2	270	0.00	30.431 
21:00	12.1	12.1	12.1	73	5.1	0	1	270	0.00	30.433 
21:05	11.9	11.9	11.9	73	4.9	0	1	270	0.00	30.431 
21:10	11.7	11.7	11.7	73	4.7	0	2	270	0.00	30.433 
21:15	11.6	11.6	11.6	73	4.7	0	1	270	0.00	30.435 
21:20	11.4	11.4	11.4	73	4.5	0	2	270	0.00	30.435 
21:25	11.4	11.4	11.4	73	4.5	0	1	270	0.00	30.435 
21:30	11.2	11.2	11.2	73	4.3	0	1	270	0.00	30.436 
21:35	11.1	11.1	11.1	73	4.2	0	1	270	0.00	30.439 
21:40	10.9	10.9	10.9	73	4.0	0	1	270	0.00	30.440 
21:45	10.9	10.9	10.9	73	4.0	0	1	270	0.00	30.438 
21:50	10.7	10.7	10.7	73	3.8	0	1	270	0.00	30.441 
21:55	10.7	10.7	10.7	73	3.8	0	2	270	0.00	30.441 
22:00	10.5	10.5	10.5	73	3.6	0	2	248	0.00	30.443 
22:05	10.5	10.5	10.5	73	3.6	0	2	248	0.00	30.441 
22:10	10.5	10.5	10.5	73	3.6	1	2	248	0.00	30.442 
22:15	10.4	10.4	10.4	73	3.5	0	1	248	0.00	30.443 
22:20	10.2	10.2	10.2	73	3.3	0	1	248	0.00	30.448 
22:25	10.2	10.2	10.2	74	3.6	0	3	248	0.00	30.448 
22:30	10.2	10.2	10.2	74	3.6	0	2	248	0.00	30.451 
22:35	10.0	10.0	10.0	73	3.1	0	2	248	0.00	30.451 
22:40	10.0	10.0	10.0	73	3.1	1	3	248	0.00	30.452 
22:45	10.0	10.0	10.0	73	3.1	0	1	270	0.00	30.452 
22:50	10.0	10.0	10.0	73	3.1	0	2	270	0.00	30.452 
22:55	9.9	9.9	9.9	72	2.7	0	2	270	0.00	30.452 
23:00	9.7	9.7	9.7	71	2.2	0	2	270	0.00	30.451 
23:05	9.7	9.7	9.7	71	2.2	1	3	270	0.00	30.451 
23:10	9.7	9.7	9.7	71	2.2	0	2	270	0.00	30.451 
23:15	9.5	9.5	9.5	70	1.7	0	1	270	0.00	30.448 
23:20	9.5	9.5	9.5	70	1.7	1	3	270	0.00	30.447 
23:25	9.3	9.3	9.3	70	1.5	0	2	248	0.00	30.448 
23:30	9.2	9.2	9.2	70	1.4	0	2	248	0.00	30.442 
23:35	9.2	9.2	9.2	69	1.1	0	4	248	0.00	30.440 
23:40	9.0	9.0	9.0	69	0.9	0	2	248	0.00	30.436 
23:45	8.8	8.8	8.8	69	0.7	0	1	248	0.00	30.433 
23:50	8.8	8.8	8.8	68	0.4	0	1	248	0.00	30.435 
23:55	8.6	8.6	8.6	68	0.2	0	1	248	0.00	30.432 

CoCoRaHS
IN-AL-39
A2 Web Hosting
Creative Commons License
GoDaddy
search engine by freefind advanced

loaded 2018-11-14 03:44:10 • last modified 2010-11-18 10:43:29
Privacy PolicyDisclaimer
• wx.awcolley.com is powered by PmWiki v.2002016 •
• all content (unless otherwise noted) © 2018 A W Colley